createdAt,value
2023-02-03T00:01:50.332Z,100982.47
2023-02-03T00:04:17.029Z,100983.50
2023-02-03T00:06:43.974Z,100985.06
2023-02-03T00:09:10.869Z,100993.56
2023-02-03T00:11:37.905Z,100999.78
2023-02-03T00:14:05.516Z,101012.38
2023-02-03T00:16:32.307Z,101000.78
2023-02-03T00:19:00.071Z,101004.38
2023-02-03T00:21:26.670Z,101009.31
2023-02-03T00:23:54.727Z,101013.78
2023-02-03T00:26:21.400Z,101010.09
2023-02-03T00:28:47.976Z,101025.50
2023-02-03T00:31:19.590Z,101018.56
2023-02-03T00:33:46.563Z,101033.13
2023-02-03T00:36:14.825Z,101027.34
2023-02-03T00:38:41.363Z,101037.41
2023-02-03T00:41:08.017Z,101037.63
2023-02-03T00:43:34.648Z,101040.28
2023-02-03T00:46:01.345Z,101027.84
2023-02-03T00:48:27.994Z,101032.47
2023-02-03T00:50:54.625Z,101028.38
2023-02-03T00:53:21.200Z,101034.72
2023-02-03T00:55:47.786Z,101044.63
2023-02-03T00:58:14.344Z,101044.72
2023-02-03T01:00:40.908Z,101043.03
2023-02-03T01:03:07.459Z,101059.19
2023-02-03T01:05:34.043Z,101065.63
2023-02-03T01:08:01.444Z,101065.06
2023-02-03T01:10:29.272Z,101076.84
2023-02-03T01:12:55.941Z,101085.22
2023-02-03T01:15:22.562Z,101095.06
2023-02-03T01:17:49.149Z,101090.94
2023-02-03T01:20:17.209Z,101095.47
2023-02-03T01:22:43.871Z,101097.63
2023-02-03T01:25:10.452Z,101103.84
2023-02-03T01:27:37.063Z,101096.78
2023-02-03T01:30:04.319Z,101094.16
2023-02-03T01:32:30.927Z,101092.44
2023-02-03T01:34:57.617Z,101092.50
2023-02-03T01:37:24.161Z,101104.22
2023-02-03T01:39:50.716Z,101106.19
2023-02-03T01:42:17.242Z,101103.72
2023-02-03T01:44:43.810Z,101108.44
2023-02-03T01:47:39.090Z,101117.25
2023-02-03T01:50:11.867Z,101114.09
2023-02-03T01:52:41.980Z,101110.88
2023-02-03T01:55:12.855Z,101125.97
2023-02-03T01:57:46.475Z,101121.88
2023-02-03T02:00:13.592Z,101121.47
2023-02-03T02:02:42.925Z,101128.66
2023-02-03T02:05:15.411Z,101128.78
2023-02-03T02:07:43.512Z,101119.16
2023-02-03T02:10:10.703Z,101116.38
2023-02-03T02:12:37.568Z,101117.06
2023-02-03T02:15:04.727Z,101106.50
2023-02-03T02:17:34.190Z,101105.59
2023-02-03T02:20:31.887Z,101104.78
2023-02-03T02:23:46.695Z,101102.25
2023-02-03T02:26:27.346Z,101100.50
2023-02-03T02:29:00.010Z,101102.06
2023-02-03T02:31:53.936Z,101103.69
2023-02-03T02:34:20.493Z,101104.53
2023-02-03T02:36:56.001Z,101103.75
2023-02-03T02:39:38.708Z,101104.03
2023-02-03T02:42:14.262Z,101101.47
2023-02-03T02:44:53.924Z,101109.66
2023-02-03T02:47:23.309Z,101114.28
2023-02-03T02:50:02.725Z,101121.38
2023-02-03T02:52:32.702Z,101117.16
2023-02-03T02:55:06.680Z,101121.66
2023-02-03T02:57:35.223Z,101121.56
2023-02-03T03:00:02.644Z,101124.09
2023-02-03T03:02:33.993Z,101123.91
2023-02-03T03:05:02.579Z,101126.66
2023-02-03T03:07:34.789Z,101131.13
2023-02-03T03:10:07.769Z,101123.50
2023-02-03T03:12:45.164Z,101120.84
2023-02-03T03:15:16.321Z,101116.59
2023-02-03T03:17:57.883Z,101119.34
2023-02-03T03:20:27.237Z,101115.06
2023-02-03T03:23:01.485Z,101111.75
2023-02-03T03:25:39.473Z,101111.16
2023-02-03T03:28:11.626Z,101119.38
2023-02-03T03:30:39.461Z,101116.78
2023-02-03T03:33:08.174Z,101115.34
2023-02-03T03:35:55.473Z,101121.13
2023-02-03T03:38:32.012Z,101121.81
2023-02-03T03:41:19.691Z,101105.84
2023-02-03T03:43:49.496Z,101126.25
2023-02-03T03:46:28.209Z,101108.69
2023-02-03T03:48:59.574Z,101116.59
2023-02-03T03:51:28.181Z,101116.72
2023-02-03T03:54:00.983Z,101108.03
2023-02-03T03:56:41.836Z,101112.47
2023-02-03T03:59:11.380Z,101117.03
2023-02-03T04:01:39.448Z,101110.06
2023-02-03T04:04:10.565Z,101113.66
2023-02-03T04:06:40.117Z,101108.94
2023-02-03T04:09:07.328Z,101104.63
2023-02-03T04:11:52.355Z,101105.59
2023-02-03T04:14:18.935Z,101095.94
2023-02-03T04:16:45.468Z,101097.84
2023-02-03T04:19:12.016Z,101102.31
2023-02-03T04:21:38.612Z,101091.81
2023-02-03T04:24:05.539Z,101087.41
2023-02-03T04:26:32.135Z,101083.03
2023-02-03T04:28:58.656Z,101084.78
2023-02-03T04:31:25.333Z,101090.91
2023-02-03T04:33:51.929Z,101091.00
2023-02-03T04:36:18.512Z,101094.69
2023-02-03T04:38:45.051Z,101091.97
2023-02-03T04:41:11.824Z,101097.25
2023-02-03T04:43:38.357Z,101094.59
2023-02-03T04:46:05.083Z,101089.31
2023-02-03T04:48:31.636Z,101096.28
2023-02-03T04:51:05.940Z,101092.88
2023-02-03T04:53:33.361Z,101091.94
2023-02-03T04:56:00.301Z,101092.75
2023-02-03T04:58:27.392Z,101092.72
2023-02-03T05:00:54.983Z,101087.44
2023-02-03T05:03:24.874Z,101079.53
2023-02-03T05:05:52.289Z,101068.97
2023-02-03T05:08:18.832Z,101081.28
2023-02-03T05:10:45.397Z,101083.94
2023-02-03T05:13:12.107Z,101089.16
2023-02-03T05:15:38.664Z,101088.03
2023-02-03T05:18:05.249Z,101078.81
2023-02-03T05:20:31.777Z,101079.84
2023-02-03T05:22:59.089Z,101088.25
2023-02-03T05:25:25.747Z,101095.97
2023-02-03T05:27:52.297Z,101104.66
2023-02-03T05:30:19.139Z,101099.28
2023-02-03T05:32:45.726Z,101096.31
2023-02-03T05:35:12.256Z,101099.38
2023-02-03T05:37:38.820Z,101080.47
2023-02-03T05:40:24.410Z,101091.75
2023-02-03T05:42:50.989Z,101099.31
2023-02-03T05:45:17.663Z,101085.13
2023-02-03T05:47:44.204Z,101097.41
2023-02-03T05:50:10.946Z,101088.59
2023-02-03T05:52:37.618Z,101097.50
2023-02-03T05:55:04.570Z,101094.78
2023-02-03T05:57:32.355Z,101101.88
2023-02-03T05:59:59.076Z,101102.81
2023-02-03T06:02:25.637Z,101100.97
2023-02-03T06:04:52.218Z,101096.44
2023-02-03T06:07:18.746Z,101089.28
2023-02-03T06:09:45.370Z,101082.19
2023-02-03T06:12:11.955Z,101086.56
2023-02-03T06:14:38.533Z,101081.19
2023-02-03T06:17:05.119Z,101084.69
2023-02-03T06:19:31.827Z,101080.13
2023-02-03T06:21:58.365Z,101087.03
2023-02-03T06:24:24.945Z,101087.66
2023-02-03T06:26:51.491Z,101103.97
2023-02-03T06:29:18.178Z,101098.53
2023-02-03T06:31:44.982Z,101101.06
2023-02-03T06:34:11.734Z,101103.63
2023-02-03T06:36:38.328Z,101102.78
2023-02-03T06:39:04.873Z,101103.75
2023-02-03T06:41:32.825Z,101114.22
2023-02-03T06:44:00.221Z,101113.25
2023-02-03T06:46:30.159Z,101117.47
2023-02-03T06:48:56.917Z,101116.44
2023-02-03T06:51:24.873Z,101118.34
2023-02-03T06:53:51.679Z,101109.38
2023-02-03T06:56:18.289Z,101110.06
2023-02-03T06:58:45.166Z,101106.66
2023-02-03T07:01:11.783Z,101112.72
2023-02-03T07:03:38.524Z,101108.75
2023-02-03T07:06:05.379Z,101105.13
2023-02-03T07:08:31.984Z,101098.00
2023-02-03T07:10:58.552Z,101094.44
2023-02-03T07:13:25.138Z,101096.34
2023-02-03T07:15:51.889Z,101089.09
2023-02-03T07:18:35.988Z,101090.06
2023-02-03T07:21:07.357Z,101098.00
2023-02-03T07:23:34.492Z,101092.81
2023-02-03T07:26:02.989Z,101092.97
2023-02-03T07:28:29.527Z,101099.25
2023-02-03T07:30:56.149Z,101107.19
2023-02-03T07:33:24.392Z,101111.56
2023-02-03T07:35:55.107Z,101108.97
2023-02-03T07:38:22.798Z,101115.31
2023-02-03T07:40:49.439Z,101124.13
2023-02-03T07:43:15.982Z,101135.56
2023-02-03T07:45:42.885Z,101132.78
2023-02-03T07:48:09.560Z,101136.34
2023-02-03T07:50:36.099Z,101126.56
2023-02-03T07:53:03.178Z,101135.38
2023-02-03T07:55:29.841Z,101143.31
2023-02-03T07:57:57.264Z,101135.44
2023-02-03T08:00:24.700Z,101139.88
2023-02-03T08:02:51.988Z,101147.75
2023-02-03T08:05:18.886Z,101152.28
2023-02-03T08:07:46.351Z,101143.38
2023-02-03T08:10:15.486Z,101140.63
2023-02-03T08:12:46.633Z,101137.06
2023-02-03T08:15:14.217Z,101130.88
2023-02-03T08:17:41.968Z,101139.66
2023-02-03T08:20:09.738Z,101137.00
2023-02-03T08:22:36.410Z,101133.69
2023-02-03T08:25:03.917Z,101122.31
2023-02-03T08:27:35.216Z,101126.72
2023-02-03T08:30:01.953Z,101129.41
2023-02-03T08:32:28.538Z,101132.03
2023-02-03T08:34:55.109Z,101126.78
2023-02-03T08:37:30.558Z,101135.63
2023-02-03T08:39:57.381Z,101137.44
2023-02-03T08:42:25.375Z,101135.59
2023-02-03T08:44:51.951Z,101131.16
2023-02-03T08:47:18.781Z,101141.81
2023-02-03T08:49:45.520Z,101145.28
2023-02-03T08:52:13.523Z,101147.00
2023-02-03T08:54:40.168Z,101146.91
2023-02-03T08:57:08.566Z,101157.38
2023-02-03T08:59:37.850Z,101147.69
2023-02-03T09:02:07.932Z,101149.34
2023-02-03T09:04:34.526Z,101158.31
2023-02-03T09:07:04.425Z,101157.44
2023-02-03T09:09:32.386Z,101151.22
2023-02-03T09:12:02.417Z,101155.78
2023-02-03T09:14:30.429Z,101151.50
2023-02-03T09:16:57.276Z,101160.28
2023-02-03T09:19:24.083Z,101166.69
2023-02-03T09:21:50.913Z,101156.13
2023-02-03T09:24:18.644Z,101155.53
2023-02-03T09:26:45.688Z,101152.25
2023-02-03T09:29:13.544Z,101148.00
2023-02-03T09:31:40.272Z,101131.25
2023-02-03T09:34:07.049Z,101131.06
2023-02-03T09:36:35.027Z,101135.63
2023-02-03T09:39:02.049Z,101127.75
2023-02-03T09:42:06.166Z,101125.22
2023-02-03T09:44:51.652Z,101111.22
2023-02-03T09:47:28.794Z,101106.75
2023-02-03T09:49:58.917Z,101095.19
2023-02-03T09:52:32.547Z,101089.66
2023-02-03T09:55:21.564Z,101085.25
2023-02-03T09:57:56.864Z,101073.78
2023-02-03T10:00:28.853Z,101064.06
2023-02-03T10:03:15.878Z,101057.97
2023-02-03T10:06:19.920Z,101056.88
2023-02-03T10:09:09.692Z,101055.09
2023-02-03T10:11:53.283Z,101050.78
2023-02-03T10:14:39.043Z,101036.44
2023-02-03T10:17:30.229Z,101024.72
2023-02-03T10:20:06.130Z,101020.94
2023-02-03T10:22:38.107Z,101022.41
2023-02-03T10:25:17.926Z,101011.03
2023-02-03T10:27:45.241Z,100999.44
2023-02-03T10:30:26.778Z,100989.00
2023-02-03T10:33:11.823Z,100993.97
2023-02-03T10:36:02.924Z,100983.19
2023-02-03T10:38:38.534Z,100980.44
2023-02-03T10:41:05.311Z,100978.88
2023-02-03T10:43:48.063Z,100969.88
2023-02-03T10:46:20.769Z,100963.72
2023-02-03T10:48:47.795Z,100954.16
2023-02-03T10:51:24.737Z,100955.91
2023-02-03T10:53:53.515Z,100952.41
2023-02-03T10:56:27.014Z,100943.63
2023-02-03T10:58:57.032Z,100937.00
2023-02-03T11:01:26.600Z,100930.72
2023-02-03T11:04:01.771Z,100914.78
2023-02-03T11:06:31.531Z,100917.72
2023-02-03T11:08:58.553Z,100922.06
2023-02-03T11:11:34.233Z,100913.34
2023-02-03T11:14:03.585Z,100905.44
2023-02-03T11:16:33.361Z,100891.16
2023-02-03T11:19:05.728Z,100886.91
2023-02-03T11:21:38.013Z,100903.03
2023-02-03T11:24:25.095Z,100879.94
2023-02-03T11:27:04.724Z,100885.56
2023-02-03T11:29:34.711Z,100874.88
2023-02-03T11:32:20.173Z,100881.75
2023-02-03T11:34:58.344Z,100871.50
2023-02-03T11:37:42.028Z,100860.16
2023-02-03T11:40:08.532Z,100858.63
2023-02-03T11:42:37.303Z,100860.56
2023-02-03T11:45:25.735Z,100844.69
2023-02-03T11:48:10.540Z,100834.38
2023-02-03T11:50:39.650Z,100824.78
2023-02-03T11:53:56.576Z,100818.59
2023-02-03T11:56:51.694Z,100813.31
2023-02-03T11:59:44.095Z,100801.75
2023-02-03T12:02:44.672Z,100795.91
2023-02-03T12:05:20.226Z,100789.84
2023-02-03T12:08:30.050Z,100781.09
2023-02-03T12:11:11.884Z,100771.09
2023-02-03T12:14:01.203Z,100754.47
2023-02-03T12:16:52.302Z,100757.22
2023-02-03T12:19:29.787Z,100747.50
2023-02-03T12:22:10.369Z,100746.63
2023-02-03T12:24:51.415Z,100733.34
2023-02-03T12:28:03.339Z,100734.09
2023-02-03T12:30:42.953Z,100718.41
2023-02-03T12:33:21.045Z,100713.94
2023-02-03T12:35:58.798Z,100699.72
2023-02-03T12:38:52.660Z,100690.06
2023-02-03T12:41:40.460Z,100682.19
2023-02-03T12:44:32.765Z,100674.38
2023-02-03T12:47:16.189Z,100665.47
2023-02-03T12:49:48.680Z,100664.66
2023-02-03T12:52:22.948Z,100657.53
2023-02-03T12:55:08.415Z,100648.84
2023-02-03T12:57:48.850Z,100640.81
2023-02-03T13:00:50.288Z,100628.53
2023-02-03T13:03:19.749Z,100614.34
2023-02-03T13:06:18.353Z,100611.72
2023-02-03T13:08:56.235Z,100607.22
2023-02-03T13:11:31.591Z,100600.03
2023-02-03T13:14:11.430Z,100591.16
2023-02-03T13:16:43.523Z,100587.66
2023-02-03T13:19:21.835Z,100580.44
2023-02-03T13:21:49.632Z,100582.94
2023-02-03T13:24:16.545Z,100572.31
2023-02-03T13:26:59.190Z,100553.63
2023-02-03T13:29:57.745Z,100543.84
2023-02-03T13:32:30.213Z,100543.72
2023-02-03T13:35:33.854Z,100537.47
2023-02-03T13:38:16.114Z,100526.78
2023-02-03T13:41:14.160Z,100530.19
2023-02-03T13:43:46.611Z,100517.69
2023-02-03T13:46:26.829Z,100517.56
2023-02-03T13:48:56.922Z,100514.78
2023-02-03T13:51:36.499Z,100499.53
2023-02-03T13:54:17.322Z,100503.00
2023-02-03T13:56:58.534Z,100491.53
2023-02-03T13:59:33.001Z,100484.28
2023-02-03T14:02:25.831Z,100484.00
2023-02-03T14:04:57.999Z,100478.59
2023-02-03T14:07:40.846Z,100476.66
2023-02-03T14:10:15.798Z,100465.19
2023-02-03T14:12:51.185Z,100472.06
2023-02-03T14:15:28.288Z,100461.34
2023-02-03T14:18:00.594Z,100457.75
2023-02-03T14:20:27.234Z,100459.41
2023-02-03T14:22:58.981Z,100454.03
2023-02-03T14:25:27.362Z,100444.28
2023-02-03T14:28:07.755Z,100441.63
2023-02-03T14:31:03.464Z,100440.50
2023-02-03T14:33:48.288Z,100432.41
2023-02-03T14:36:39.237Z,100423.50
2023-02-03T14:39:37.419Z,100425.97
2023-02-03T14:42:29.110Z,100419.72
2023-02-03T14:45:14.470Z,100408.88
2023-02-03T14:47:47.047Z,100404.22
2023-02-03T14:50:28.977Z,100399.69
2023-02-03T14:53:21.149Z,100389.78
2023-02-03T14:56:12.348Z,100406.28
2023-02-03T14:59:09.856Z,100401.59
2023-02-03T15:01:36.649Z,100396.13
2023-02-03T15:04:12.680Z,100380.94
2023-02-03T15:06:51.154Z,100385.06
2023-02-03T15:09:23.777Z,100377.81
2023-02-03T15:11:50.488Z,100369.78
2023-02-03T15:14:21.677Z,100366.19
2023-02-03T15:16:56.011Z,100364.25
2023-02-03T15:19:25.376Z,100357.94
2023-02-03T15:21:52.669Z,100359.56
2023-02-03T15:24:23.849Z,100360.44
2023-02-03T15:26:55.937Z,100354.13
2023-02-03T15:29:32.709Z,100341.69
2023-02-03T15:32:11.223Z,100331.00
2023-02-03T15:34:48.819Z,100335.38
2023-02-03T15:37:29.952Z,100325.53
2023-02-03T15:40:06.425Z,100325.13
2023-02-03T15:42:36.524Z,100328.25
2023-02-03T15:45:13.807Z,100312.94
2023-02-03T15:47:47.026Z,100320.72
2023-02-03T15:50:30.721Z,100314.41
2023-02-03T15:53:04.068Z,100316.97
2023-02-03T15:55:41.997Z,100311.59
2023-02-03T15:58:22.287Z,100315.09
2023-02-03T16:00:55.424Z,100311.41
2023-02-03T16:03:47.451Z,100317.66
2023-02-03T16:06:40.379Z,100303.53
2023-02-03T16:09:27.387Z,100313.13
2023-02-03T16:12:19.076Z,100299.84
2023-02-03T16:14:46.805Z,100304.22
2023-02-03T16:17:33.089Z,100299.84
2023-02-03T16:20:11.500Z,100286.59
2023-02-03T16:22:44.107Z,100279.56
2023-02-03T16:25:29.598Z,100266.28
2023-02-03T16:28:19.600Z,100261.34
2023-02-03T16:31:17.563Z,100246.88
2023-02-03T16:34:08.456Z,100258.09
2023-02-03T16:36:59.534Z,100251.06
2023-02-03T16:39:45.538Z,100246.13
2023-02-03T16:42:35.234Z,100236.53
2023-02-03T16:45:21.166Z,100236.31
2023-02-03T16:48:06.560Z,100229.72
2023-02-03T16:50:53.930Z,100234.78
2023-02-03T16:53:26.345Z,100216.88
2023-02-03T16:55:56.030Z,100213.09
2023-02-03T16:58:23.500Z,100193.28
2023-02-03T17:00:52.236Z,100191.00
2023-02-03T17:03:24.229Z,100172.41
2023-02-03T17:05:52.339Z,100178.38
2023-02-03T17:08:21.934Z,100169.09
2023-02-03T17:10:49.437Z,100151.38
2023-02-03T17:13:17.829Z,100135.50
2023-02-03T17:15:46.846Z,100126.13
2023-02-03T17:18:17.799Z,100131.47
2023-02-03T17:20:45.403Z,100131.53
2023-02-03T17:23:13.474Z,100127.00
2023-02-03T17:25:40.511Z,100131.53
2023-02-03T17:28:09.028Z,100126.06
2023-02-03T17:30:37.398Z,100127.75
2023-02-03T17:33:16.640Z,100123.97
2023-02-03T17:35:45.303Z,100128.06
2023-02-03T17:38:14.353Z,100112.31
2023-02-03T17:54:34.337Z,100097.69
2023-02-03T17:57:00.858Z,100090.47
2023-02-03T17:59:27.503Z,100101.88
2023-02-03T18:01:54.080Z,100095.69
2023-02-03T18:04:20.776Z,100099.50
2023-02-03T18:06:47.334Z,100083.47
2023-02-03T18:09:16.552Z,100079.00
2023-02-03T18:11:43.813Z,100074.81
2023-02-03T18:14:12.155Z,100068.56
2023-02-03T18:16:38.909Z,100063.63
2023-02-03T18:19:07.867Z,100060.78
2023-02-03T18:21:37.747Z,100049.84
2023-02-03T18:24:05.869Z,100045.09
2023-02-03T18:26:36.981Z,100039.13
2023-02-03T18:29:05.210Z,100044.22
2023-02-03T18:31:32.470Z,100040.63
2023-02-03T18:34:03.670Z,100026.94
2023-02-03T18:36:30.627Z,100035.56
2023-02-03T18:38:57.854Z,100024.44
2023-02-03T18:41:25.768Z,100022.34
2023-02-03T18:43:52.447Z,100027.66
2023-02-03T18:46:31.753Z,100028.31
2023-02-03T18:48:58.784Z,100016.63
2023-02-03T18:51:26.478Z,100018.38
2023-02-03T18:53:57.794Z,100018.75
2023-02-03T18:56:35.140Z,100020.25
2023-02-03T18:59:05.727Z,100020.47
2023-02-03T19:01:32.916Z,100021.81
2023-02-03T19:04:01.851Z,100018.81
2023-02-03T19:06:30.577Z,100023.19
2023-02-03T19:08:58.828Z,100029.38
2023-02-03T19:11:27.024Z,100041.09
2023-02-03T19:13:53.887Z,100034.81
2023-02-03T19:16:20.560Z,100010.75
2023-02-03T19:18:47.513Z,100012.03
2023-02-03T19:21:14.397Z,100017.59
2023-02-03T19:23:42.357Z,100009.28
2023-02-03T19:26:10.193Z,100000.34
2023-02-03T19:28:37.758Z,99990.34
2023-02-03T19:31:15.109Z,99989.28
2023-02-03T19:33:42.236Z,100001.09
2023-02-03T19:36:09.797Z,100020.78
2023-02-03T19:38:36.403Z,100014.19
2023-02-03T19:41:03.333Z,99982.31
2023-02-03T19:43:30.796Z,100005.66
2023-02-03T19:45:57.327Z,100005.00
2023-02-03T19:48:23.900Z,100007.53
2023-02-03T19:50:50.612Z,99997.09
2023-02-03T19:53:18.240Z,99991.97
2023-02-03T19:55:46.273Z,99981.31
2023-02-03T19:58:13.994Z,99999.88
2023-02-03T20:00:41.703Z,100010.84
2023-02-03T20:03:08.448Z,100021.03
2023-02-03T20:05:36.284Z,100026.03
2023-02-03T20:08:03.859Z,100040.56
2023-02-03T20:10:32.543Z,100029.50
2023-02-03T20:12:59.425Z,100041.50
2023-02-03T20:15:26.910Z,100036.56
2023-02-03T20:17:53.826Z,100037.72
2023-02-03T20:20:20.968Z,100044.19
2023-02-03T20:22:48.362Z,100035.84
2023-02-03T20:25:15.444Z,100035.72
2023-02-03T20:27:42.168Z,100029.47
2023-02-03T20:30:09.376Z,100037.66
2023-02-03T20:32:36.202Z,100034.25
2023-02-03T20:35:04.480Z,100037.09
2023-02-03T20:37:31.072Z,100031.59
2023-02-03T20:39:57.691Z,100024.59
2023-02-03T20:42:24.302Z,100024.50
2023-02-03T20:44:50.876Z,100010.81
2023-02-03T20:47:22.715Z,100019.25
2023-02-03T20:49:49.762Z,100014.28
2023-02-03T20:52:19.853Z,99999.41
2023-02-03T20:54:47.865Z,99987.19
2023-02-03T20:57:18.950Z,99987.38
2023-02-03T20:59:46.354Z,99980.25
2023-02-03T21:02:51.993Z,99970.91
2023-02-03T21:05:27.379Z,99980.13
2023-02-03T21:07:54.445Z,99974.72
2023-02-03T21:10:24.995Z,99971.31
2023-02-03T21:12:52.164Z,99976.63
2023-02-03T21:15:32.087Z,99986.00
2023-02-03T21:17:58.737Z,99957.69
2023-02-03T21:20:31.253Z,99979.22
2023-02-03T21:22:58.436Z,99989.00
2023-02-03T21:25:31.732Z,99978.16
2023-02-03T21:27:59.773Z,99976.41
2023-02-03T21:30:30.894Z,99965.34
2023-02-03T21:32:59.031Z,99985.28
2023-02-03T21:35:32.131Z,99986.00
2023-02-03T21:38:02.468Z,99993.34
2023-02-03T21:40:33.731Z,99991.97
2023-02-03T21:43:03.205Z,99994.31
2023-02-03T21:45:37.900Z,99999.72
2023-02-03T21:48:24.211Z,100004.72
2023-02-03T21:50:51.823Z,100008.63
2023-02-03T21:53:35.641Z,100005.97
2023-02-03T21:56:39.985Z,99998.75
2023-02-03T21:59:16.475Z,99991.72
2023-02-03T22:01:43.142Z,99991.94
2023-02-03T22:04:09.759Z,99987.34
2023-02-03T22:06:41.906Z,99994.09
2023-02-03T22:09:11.996Z,99992.78
2023-02-03T22:11:38.591Z,100014.09
2023-02-03T22:14:05.356Z,100019.28
2023-02-03T22:16:32.265Z,100014.28
2023-02-03T22:18:58.836Z,100034.59
2023-02-03T22:21:26.400Z,100027.13
2023-02-03T22:23:53.029Z,100033.59
2023-02-03T22:26:20.191Z,100039.38
2023-02-03T22:28:47.283Z,100039.38
2023-02-03T22:31:15.031Z,100031.94
2023-02-03T22:33:42.372Z,100041.84
2023-02-03T22:36:10.613Z,100057.50
2023-02-03T22:38:39.143Z,100054.66
2023-02-03T22:41:06.472Z,100048.47
2023-02-03T22:43:33.895Z,100038.47
2023-02-03T22:46:01.829Z,100050.94
2023-02-03T22:48:29.243Z,100061.59
2023-02-03T22:50:56.353Z,100067.75
2023-02-03T22:53:22.916Z,100079.81
2023-02-03T22:55:49.448Z,100082.34
2023-02-03T22:58:16.020Z,100083.31
2023-02-03T23:00:42.791Z,100073.63
2023-02-03T23:03:09.529Z,100057.75
2023-02-03T23:05:36.137Z,100046.44
2023-02-03T23:08:02.783Z,100048.56
2023-02-03T23:10:31.099Z,100054.25
2023-02-03T23:13:00.735Z,100047.47
2023-02-03T23:15:28.100Z,100035.13
2023-02-03T23:17:54.764Z,100041.91
2023-02-03T23:20:21.524Z,100029.47
2023-02-03T23:22:48.357Z,100036.50
2023-02-03T23:25:15.118Z,100025.94
2023-02-03T23:27:42.223Z,100013.72
2023-02-03T23:30:09.693Z,100017.13
2023-02-03T23:32:36.313Z,99998.19
2023-02-03T23:35:21.396Z,100005.53
2023-02-03T23:37:47.907Z,100001.81
2023-02-03T23:40:14.751Z,99993.41
2023-02-03T23:42:41.445Z,99990.56
2023-02-03T23:45:11.720Z,99994.59
2023-02-03T23:47:43.103Z,100002.91
2023-02-03T23:50:11.524Z,99997.78
2023-02-03T23:52:38.214Z,99998.09
2023-02-03T23:55:07.772Z,99996.06
2023-02-03T23:57:34.481Z,100002.78
